Time;durP1;ratioP1;P1;durP2;ratioP2;P2;SDS_P1;SDS_P2;PMS_P1;PMS_P2;Temp;Humidity;BMP_temperature;BMP_pressure;BME280_temperature;BME280_humidity;BME280_pressure;Samples;Min_cycle;Max_cycle;Signal;HPM_P1;HPM_P2
2022/12/12 00:00:04;;;;;;;19.02;8.40;;;;;;;;;;4978440;28;20051;-82
2022/12/12 00:02:29;;;;;;;19.70;7.95;;;;;;;;;;4979978;28;20019;-81
2022/12/12 00:04:56;;;;;;;19.50;7.72;;;;;;;;;;4980212;28;20118;-83
2022/12/12 00:07:21;;;;;;;19.60;8.13;;;;;;;;;;4977593;28;20037;-83
2022/12/12 00:09:46;;;;;;;20.13;7.47;;;;;;;;;;4977703;28;20034;-82
2022/12/12 00:12:12;;;;;;;16.52;7.15;;;;;;;;;;4978461;28;20107;-83
2022/12/12 00:14:37;;;;;;;19.67;8.00;;;;;;;;;;4978641;28;20400;-82
2022/12/12 00:17:02;;;;;;;16.95;7.20;;;;;;;;;;4978574;28;20058;-81
2022/12/12 00:19:27;;;;;;;16.73;7.88;;;;;;;;;;4978954;28;20114;-81
2022/12/12 00:21:53;;;;;;;17.70;7.72;;;;;;;;;;4976677;28;20030;-82
2022/12/12 00:24:18;;;;;;;15.32;6.78;;;;;;;;;;4975857;28;20052;-79
2022/12/12 00:26:43;;;;;;;20.08;8.52;;;;;;;;;;4975833;28;20022;-82
2022/12/12 00:29:09;;;;;;;18.00;7.80;;;;;;;;;;4976836;28;20105;-82
2022/12/12 00:31:34;;;;;;;17.33;7.90;;;;;;;;;;4977166;28;20469;-82
2022/12/12 00:34:00;;;;;;;18.88;7.65;;;;;;;;;;4977837;28;20034;-82
2022/12/12 00:36:28;;;;;;;16.65;7.25;;;;;;;;;;4977429;28;20026;-82
2022/12/12 00:38:53;;;;;;;18.88;7.57;;;;;;;;;;4975546;28;20126;-82
2022/12/12 00:41:19;;;;;;;21.90;8.02;;;;;;;;;;4977479;28;20066;-82
2022/12/12 00:43:44;;;;;;;21.48;8.18;;;;;;;;;;4975572;28;20030;-80
2022/12/12 00:46:13;;;;;;;17.83;7.75;;;;;;;;;;4978481;28;20494;-84
2022/12/12 00:48:39;;;;;;;22.65;8.90;;;;;;;;;;4978477;28;20434;-83
2022/12/12 00:51:07;;;;;;;24.45;8.48;;;;;;;;;;4975735;28;20121;-81
2022/12/12 00:53:33;;;;;;;19.38;7.57;;;;;;;;;;4975823;28;20158;-81
2022/12/12 00:55:59;;;;;;;23.80;8.68;;;;;;;;;;4976784;28;20491;-83
2022/12/12 00:58:25;;;;;;;19.52;8.13;;;;;;;;;;4978366;28;20030;-83
2022/12/12 01:00:51;;;;;;;15.68;7.20;;;;;;;;;;4976218;28;20107;-81
2022/12/12 01:03:17;;;;;;;22.08;8.65;;;;;;;;;;4978561;28;20039;-84
2022/12/12 01:05:42;;;;;;;17.30;7.85;;;;;;;;;;4977146;28;20477;-84
2022/12/12 01:08:07;;;;;;;19.75;8.43;;;;;;;;;;4975880;28;20042;-83
2022/12/12 01:10:33;;;;;;;24.05;9.05;;;;;;;;;;4977115;28;20432;-83
2022/12/12 01:12:58;;;;;;;18.35;8.57;;;;;;;;;;4977650;28;20031;-82
2022/12/12 01:15:25;;;;;;;18.20;8.50;;;;;;;;;;4978146;28;20026;-84
2022/12/12 01:17:50;;;;;;;20.17;7.95;;;;;;;;;;4977623;28;20050;-83
2022/12/12 01:20:20;;;;;;;17.08;7.25;;;;;;;;;;4976667;28;20023;-83
2022/12/12 01:22:47;;;;;;;19.00;8.45;;;;;;;;;;4976985;28;20026;-84
2022/12/12 01:25:14;;;;;;;17.65;7.80;;;;;;;;;;4976052;28;20027;-82
2022/12/12 01:27:40;;;;;;;16.77;7.82;;;;;;;;;;4977096;28;20109;-82
2022/12/12 01:30:07;;;;;;;18.65;7.80;;;;;;;;;;4974279;28;20026;-81
2022/12/12 01:32:32;;;;;;;19.15;8.13;;;;;;;;;;4975437;28;20029;-82
2022/12/12 01:34:57;;;;;;;24.17;9.25;;;;;;;;;;4975568;28;20101;-83
2022/12/12 01:37:23;;;;;;;20.65;8.38;;;;;;;;;;4976372;28;20048;-83
2022/12/12 01:39:48;;;;;;;21.38;8.95;;;;;;;;;;4975469;28;20039;-83
2022/12/12 01:42:16;;;;;;;23.13;7.93;;;;;;;;;;4976920;28;20035;-82
2022/12/12 01:44:47;;;;;;;22.42;8.75;;;;;;;;;;4975647;28;20447;-83
2022/12/12 01:47:14;;;;;;;20.60;8.25;;;;;;;;;;4976799;28;20384;-82
2022/12/12 01:49:43;;;;;;;22.13;8.90;;;;;;;;;;4975769;28;20033;-83
2022/12/12 01:52:14;;;;;;;19.05;8.30;;;;;;;;;;4976266;28;20432;-81
2022/12/12 01:54:42;;;;;;;17.10;7.55;;;;;;;;;;4975677;28;20031;-82
2022/12/12 01:57:14;;;;;;;19.33;8.75;;;;;;;;;;4976729;28;20037;-82
2022/12/12 01:59:40;;;;;;;17.55;7.93;;;;;;;;;;4973706;28;20125;-82
2022/12/12 02:02:06;;;;;;;16.70;7.88;;;;;;;;;;4976393;28;20030;-83
2022/12/12 02:04:32;;;;;;;22.08;8.75;;;;;;;;;;4974680;28;20034;-83
2022/12/12 02:06:58;;;;;;;18.75;7.55;;;;;;;;;;4976079;28;20093;-81
2022/12/12 02:09:24;;;;;;;11.00;4.70;;;;;;;;;;4975979;28;20027;-83
2022/12/12 02:11:54;;;;;;;17.65;8.23;;;;;;;;;;4977034;28;20031;-82
2022/12/12 02:14:27;;;;;;;14.88;6.68;;;;;;;;;;4976431;28;20437;-83
2022/12/12 02:17:32;;;;;;;21.00;8.27;;;;;;;;;;4976710;28;20085;-83
2022/12/12 02:20:23;;;;;;;19.67;8.15;;;;;;;;;;4976071;28;20027;-82
2022/12/12 02:23:13;;;;;;;21.08;8.50;;;;;;;;;;4975762;28;20033;-82
2022/12/12 02:26:03;;;;;;;18.58;7.47;;;;;;;;;;4976102;28;20106;-83
2022/12/12 02:28:54;;;;;;;19.48;8.45;;;;;;;;;;4975329;28;20030;-82
2022/12/12 02:31:31;;;;;;;19.95;8.10;;;;;;;;;;4975456;28;20031;-82
2022/12/12 02:34:02;;;;;;;15.35;7.03;;;;;;;;;;4975872;28;20030;-81
2022/12/12 02:36:39;;;;;;;22.85;8.55;;;;;;;;;;4975779;28;20504;-81
2022/12/12 02:39:24;;;;;;;24.23;8.98;;;;;;;;;;4975149;28;20026;-83
2022/12/12 02:42:03;;;;;;;20.88;7.75;;;;;;;;;;4973375;28;20042;-81
2022/12/12 02:44:41;;;;;;;18.80;7.55;;;;;;;;;;4975209;28;20030;-82
2022/12/12 02:47:22;;;;;;;20.02;7.57;;;;;;;;;;4976074;28;20037;-82
2022/12/12 02:49:53;;;;;;;18.67;8.63;;;;;;;;;;4973834;28;20062;-81
2022/12/12 02:52:19;;;;;;;20.67;8.27;;;;;;;;;;4975996;28;20031;-82
2022/12/12 02:54:44;;;;;;;20.20;7.93;;;;;;;;;;4973465;28;20500;-81
2022/12/12 02:57:15;;;;;;;21.13;8.27;;;;;;;;;;4975704;28;20065;-81
2022/12/12 02:59:46;;;;;;;21.77;7.28;;;;;;;;;;4973245;28;20137;-81
2022/12/12 03:02:33;;;;;;;20.55;8.57;;;;;;;;;;4975968;28;20443;-82
2022/12/12 03:07:58;;;;;;;21.70;7.40;;;;;;;;;;4976926;28;20042;-82
2022/12/12 03:10:47;;;;;;;19.98;8.02;;;;;;;;;;4979657;28;20066;-82
2022/12/12 03:13:35;;;;;;;26.33;10.15;;;;;;;;;;4979360;28;20027;-82
2022/12/12 03:16:38;;;;;;;23.73;8.70;;;;;;;;;;4979197;28;20035;-81
2022/12/12 03:19:27;;;;;;;18.15;7.55;;;;;;;;;;4978156;28;20073;-82
2022/12/12 03:22:29;;;;;;;18.35;8.10;;;;;;;;;;4978613;28;20477;-82
2022/12/12 03:24:59;;;;;;;20.30;8.52;;;;;;;;;;4978179;28;20022;-81
2022/12/12 03:27:38;;;;;;;20.08;8.48;;;;;;;;;;4979044;28;20299;-83
2022/12/12 03:30:05;;;;;;;25.55;8.55;;;;;;;;;;4977827;28;20052;-82
2022/12/12 03:32:38;;;;;;;22.75;8.73;;;;;;;;;;4978898;28;20019;-82
2022/12/12 03:35:16;;;;;;;25.92;9.50;;;;;;;;;;4977914;28;20535;-82
2022/12/12 03:37:47;;;;;;;15.98;7.22;;;;;;;;;;4977245;28;20035;-82
2022/12/12 03:40:19;;;;;;;20.58;8.18;;;;;;;;;;4977928;28;20396;-82
2022/12/12 03:43:02;;;;;;;19.35;7.40;;;;;;;;;;4979121;28;20029;-81
2022/12/12 03:45:54;;;;;;;17.75;8.05;;;;;;;;;;4976342;28;20031;-81
2022/12/12 03:48:52;;;;;;;20.38;8.85;;;;;;;;;;4977927;28;20113;-81
2022/12/12 03:51:19;;;;;;;10.98;4.72;;;;;;;;;;4934703;28;20101;-82
2022/12/12 03:53:51;;;;;;;23.48;8.30;;;;;;;;;;4975970;28;20412;-81
2022/12/12 03:56:16;;;;;;;21.05;8.77;;;;;;;;;;4978579;28;20034;-81
2022/12/12 03:58:49;;;;;;;19.27;8.43;;;;;;;;;;4978550;28;20102;-84
2022/12/12 04:01:16;;;;;;;19.95;8.57;;;;;;;;;;4976878;28;20119;-82
2022/12/12 04:04:14;;;;;;;19.27;7.63;;;;;;;;;;4976436;28;20019;-82
2022/12/12 04:06:59;;;;;;;19.08;7.78;;;;;;;;;;4968736;28;20520;-80
2022/12/12 04:15:19;;;;;;;17.38;6.75;;;;;;;;;;4976722;28;20460;-83
2022/12/12 04:17:52;;;;;;;20.83;7.95;;;;;;;;;;4977905;28;20101;-81
2022/12/12 04:23:55;;;;;;;17.60;7.03;;;;;;;;;;4922815;28;20178;-83
2022/12/12 04:26:40;;;;;;;21.77;8.70;;;;;;;;;;4977988;28;20035;-82
2022/12/12 04:29:18;;;;;;;17.17;7.43;;;;;;;;;;4975945;28;20488;-82
2022/12/12 04:31:58;;;;;;;19.83;8.10;;;;;;;;;;4976025;28;20121;-81
2022/12/12 04:35:05;;;;;;;18.73;7.95;;;;;;;;;;4977782;28;20070;-80
2022/12/12 04:37:37;;;;;;;16.48;7.70;;;;;;;;;;4947918;28;20046;-81
2022/12/12 04:40:07;;;;;;;24.20;8.23;;;;;;;;;;4974785;28;20049;-82
2022/12/12 04:42:37;;;;;;;20.13;8.20;;;;;;;;;;4976521;28;20416;-81
2022/12/12 04:45:10;;;;;;;18.35;7.47;;;;;;;;;;4976040;28;20027;-82
2022/12/12 04:47:37;;;;;;;17.75;7.63;;;;;;;;;;4976558;28;20480;-82
2022/12/12 04:50:06;;;;;;;15.30;6.28;;;;;;;;;;4976660;28;20034;-82
2022/12/12 04:52:33;;;;;;;14.40;6.15;;;;;;;;;;4976659;28;20033;-82
2022/12/12 04:55:20;;;;;;;17.08;7.40;;;;;;;;;;4977088;28;20109;-80
2022/12/12 04:57:51;;;;;;;13.88;6.55;;;;;;;;;;4976963;28;20026;-81
2022/12/12 05:00:16;;;;;;;16.75;7.47;;;;;;;;;;4974511;28;20058;-81
2022/12/12 05:02:54;;;;;;;16.25;7.28;;;;;;;;;;4976155;28;20118;-82
2022/12/12 05:05:42;;;;;;;17.83;7.30;;;;;;;;;;4975092;28;20029;-81
2022/12/12 05:08:29;;;;;;;13.18;5.93;;;;;;;;;;4978350;28;20080;-82
2022/12/12 05:10:58;;;;;;;17.30;6.82;;;;;;;;;;4978289;28;20034;-83
2022/12/12 05:13:28;;;;;;;15.52;6.82;;;;;;;;;;4978444;28;20023;-83
2022/12/12 05:15:55;;;;;;;14.18;6.93;;;;;;;;;;4976847;28;20086;-82
2022/12/12 05:18:21;;;;;;;12.68;6.25;;;;;;;;;;4978082;28;20034;-82
2022/12/12 05:20:46;;;;;;;12.73;6.28;;;;;;;;;;4976625;28;20035;-82
2022/12/12 05:23:11;;;;;;;12.77;5.45;;;;;;;;;;4978390;28;20019;-83
2022/12/12 05:25:37;;;;;;;13.07;5.70;;;;;;;;;;4978343;28;20026;-82
2022/12/12 05:28:02;;;;;;;13.95;6.13;;;;;;;;;;4978656;28;20019;-82
2022/12/12 05:30:27;;;;;;;13.93;6.88;;;;;;;;;;4977167;28;20113;-81
2022/12/12 05:32:53;;;;;;;12.23;6.13;;;;;;;;;;4977956;28;20118;-81
2022/12/12 05:35:18;;;;;;;15.98;7.00;;;;;;;;;;4977811;28;20035;-82
2022/12/12 05:37:43;;;;;;;15.07;6.18;;;;;;;;;;4978463;28;20073;-83
2022/12/12 05:40:11;;;;;;;11.88;5.25;;;;;;;;;;4978201;28;20030;-83
2022/12/12 05:42:37;;;;;;;9.93;5.70;;;;;;;;;;4978911;28;20426;-82
2022/12/12 05:45:03;;;;;;;12.68;6.25;;;;;;;;;;4978244;28;20118;-83
2022/12/12 05:47:29;;;;;;;10.30;5.00;;;;;;;;;;4976663;28;20027;-83
2022/12/12 05:49:54;;;;;;;9.88;5.47;;;;;;;;;;4977935;28;20050;-82
2022/12/12 05:52:19;;;;;;;10.73;5.22;;;;;;;;;;4978143;28;20026;-82
2022/12/12 05:54:45;;;;;;;4.63;3.00;;;;;;;;;;4977724;28;20037;-82
2022/12/12 05:57:10;;;;;;;8.18;4.50;;;;;;;;;;4977822;28;20037;-82
2022/12/12 05:59:35;;;;;;;9.32;4.30;;;;;;;;;;4977826;28;20023;-81
2022/12/12 06:02:00;;;;;;;8.60;4.25;;;;;;;;;;4977731;28;20392;-82
2022/12/12 06:04:26;;;;;;;7.32;3.90;;;;;;;;;;4977100;28;20038;-82
2022/12/12 06:06:51;;;;;;;11.10;4.60;;;;;;;;;;4975723;28;20457;-81
2022/12/12 06:09:17;;;;;;;5.65;3.15;;;;;;;;;;4977347;28;20057;-83
2022/12/12 06:11:42;;;;;;;6.85;3.63;;;;;;;;;;4975050;28;20393;-83
2022/12/12 06:14:08;;;;;;;5.00;2.70;;;;;;;;;;4977355;28;20038;-82
2022/12/12 06:16:34;;;;;;;5.03;2.78;;;;;;;;;;4976230;28;20031;-84
2022/12/12 06:18:59;;;;;;;6.82;3.13;;;;;;;;;;4976850;28;20035;-82
2022/12/12 06:21:24;;;;;;;6.85;3.85;;;;;;;;;;4976368;28;20038;-81
2022/12/12 06:23:50;;;;;;;4.85;2.45;;;;;;;;;;4975563;28;20022;-81
2022/12/12 06:26:17;;;;;;;8.30;3.20;;;;;;;;;;4974144;28;20027;-84
2022/12/12 06:28:42;;;;;;;5.93;3.38;;;;;;;;;;4977305;28;20038;-82
2022/12/12 06:31:08;;;;;;;6.45;3.20;;;;;;;;;;4977045;28;20031;-82
2022/12/12 06:33:34;;;;;;;4.95;2.92;;;;;;;;;;4976603;28;20038;-82
2022/12/12 06:36:15;;;;;;;3.70;2.17;;;;;;;;;;4976589;28;20033;-82
2022/12/12 06:38:40;;;;;;;2.17;1.33;;;;;;;;;;4976979;28;20019;-83
2022/12/12 06:41:11;;;;;;;3.78;2.33;;;;;;;;;;4975115;28;20388;-81
2022/12/12 06:43:37;;;;;;;3.10;1.63;;;;;;;;;;4980220;28;20029;-84
2022/12/12 06:46:06;;;;;;;4.55;2.10;;;;;;;;;;4979144;28;20034;-82
2022/12/12 06:48:32;;;;;;;2.40;1.27;;;;;;;;;;4980432;28;20030;-84
2022/12/12 06:50:58;;;;;;;4.70;2.78;;;;;;;;;;4980075;28;20500;-82
2022/12/12 06:53:24;;;;;;;3.05;1.95;;;;;;;;;;4980066;28;20465;-81
2022/12/12 06:55:50;;;;;;;6.32;3.42;;;;;;;;;;4980135;28;20037;-82
2022/12/12 06:58:15;;;;;;;4.28;2.47;;;;;;;;;;4980141;28;20023;-84
2022/12/12 07:00:40;;;;;;;6.85;3.10;;;;;;;;;;4979927;28;20026;-83
2022/12/12 07:03:06;;;;;;;6.88;2.88;;;;;;;;;;4979778;28;20065;-83
2022/12/12 07:05:32;;;;;;;1.98;1.27;;;;;;;;;;4978649;28;20118;-82
2022/12/12 07:08:01;;;;;;;4.55;2.53;;;;;;;;;;4980074;28;20027;-83
2022/12/12 07:10:26;;;;;;;5.18;2.28;;;;;;;;;;4983570;28;20026;-81
2022/12/12 07:12:52;;;;;;;4.15;2.13;;;;;;;;;;4979474;28;20050;-84
2022/12/12 07:15:17;;;;;;;4.35;2.22;;;;;;;;;;4979684;28;20051;-82
2022/12/12 07:17:42;;;;;;;3.10;1.63;;;;;;;;;;4977819;28;20030;-81
2022/12/12 07:20:08;;;;;;;2.80;2.00;;;;;;;;;;4979716;28;20421;-81
2022/12/12 07:22:33;;;;;;;2.63;2.00;;;;;;;;;;4980748;28;20023;-82
2022/12/12 07:24:59;;;;;;;2.78;1.83;;;;;;;;;;4979569;28;20030;-81
2022/12/12 07:27:24;;;;;;;3.22;2.42;;;;;;;;;;4980578;28;20064;-82
2022/12/12 07:29:49;;;;;;;2.55;1.52;;;;;;;;;;4979624;28;20023;-83
2022/12/12 07:32:14;;;;;;;5.85;2.28;;;;;;;;;;4979422;28;20480;-83
2022/12/12 07:34:40;;;;;;;4.43;2.50;;;;;;;;;;4979981;28;20027;-83
2022/12/12 07:37:05;;;;;;;4.95;2.28;;;;;;;;;;4979647;28;20190;-83
2022/12/12 07:39:32;;;;;;;4.57;1.48;;;;;;;;;;4979608;28;20065;-84
2022/12/12 07:41:58;;;;;;;5.35;2.38;;;;;;;;;;4977613;28;20476;-83
2022/12/12 07:44:23;;;;;;;4.90;2.75;;;;;;;;;;4979388;28;20034;-84
2022/12/12 07:46:48;;;;;;;3.97;2.03;;;;;;;;;;4980259;28;20019;-83
2022/12/12 07:49:14;;;;;;;2.10;1.60;;;;;;;;;;4979275;28;20082;-83
2022/12/12 07:51:39;;;;;;;3.22;1.80;;;;;;;;;;4979653;28;20118;-83
2022/12/12 07:54:05;;;;;;;7.72;3.70;;;;;;;;;;4981463;28;20026;-81
2022/12/12 07:56:30;;;;;;;1.13;0.95;;;;;;;;;;4980848;28;20019;-83
2022/12/12 07:58:55;;;;;;;4.32;1.27;;;;;;;;;;4979383;28;20078;-83
2022/12/12 08:01:24;;;;;;;1.45;0.85;;;;;;;;;;4977862;28;20034;-83
2022/12/12 08:03:50;;;;;;;1.70;1.35;;;;;;;;;;4979407;28;20031;-81
2022/12/12 08:06:17;;;;;;;0.93;0.80;;;;;;;;;;4978069;28;20030;-81
2022/12/12 08:08:44;;;;;;;2.13;1.10;;;;;;;;;;4979166;28;20033;-82
2022/12/12 08:11:11;;;;;;;5.47;2.72;;;;;;;;;;4979225;28;20037;-83
2022/12/12 08:13:37;;;;;;;2.25;1.48;;;;;;;;;;4979257;28;20495;-82
2022/12/12 08:16:04;;;;;;;1.13;0.85;;;;;;;;;;4978790;28;20026;-82
2022/12/12 08:18:29;;;;;;;6.50;2.67;;;;;;;;;;4977804;28;20031;-83
2022/12/12 08:20:55;;;;;;;2.08;1.52;;;;;;;;;;4978899;28;20034;-83
2022/12/12 08:23:20;;;;;;;5.38;2.88;;;;;;;;;;4979170;28;20019;-83
2022/12/12 08:25:45;;;;;;;1.50;1.17;;;;;;;;;;4977555;28;20374;-83
2022/12/12 08:28:11;;;;;;;4.13;1.85;;;;;;;;;;4979049;28;20058;-81
2022/12/12 08:30:36;;;;;;;1.48;1.00;;;;;;;;;;4977576;28;20054;-83
2022/12/12 08:33:02;;;;;;;2.45;1.88;;;;;;;;;;4978536;28;20384;-83
2022/12/12 08:35:31;;;;;;;1.95;1.48;;;;;;;;;;4978051;28;20026;-81
2022/12/12 08:37:56;;;;;;;3.13;1.88;;;;;;;;;;4978110;28;20054;-84
2022/12/12 08:40:21;;;;;;;3.45;2.30;;;;;;;;;;4978176;28;20400;-83
2022/12/12 08:42:47;;;;;;;1.60;1.05;;;;;;;;;;4977591;28;20110;-83
2022/12/12 08:45:12;;;;;;;2.85;1.83;;;;;;;;;;4979525;28;20389;-83
2022/12/12 08:47:37;;;;;;;2.10;1.42;;;;;;;;;;4979503;28;20093;-82
2022/12/12 08:50:04;;;;;;;5.55;3.22;;;;;;;;;;4979530;28;20039;-82
2022/12/12 08:52:30;;;;;;;4.32;2.33;;;;;;;;;;4979048;28;20033;-83
2022/12/12 08:54:55;;;;;;;2.72;1.83;;;;;;;;;;4979749;28;20054;-83
2022/12/12 08:57:20;;;;;;;0.85;0.73;;;;;;;;;;4978776;28;20034;-82
2022/12/12 08:59:45;;;;;;;1.75;1.17;;;;;;;;;;4981499;28;20054;-81
2022/12/12 09:02:11;;;;;;;1.83;1.05;;;;;;;;;;4979913;28;20326;-84
2022/12/12 09:04:37;;;;;;;1.25;1.15;;;;;;;;;;4978072;28;20179;-83
2022/12/12 09:07:03;;;;;;;0.98;0.75;;;;;;;;;;4977425;28;20075;-83
2022/12/12 09:09:29;;;;;;;1.15;0.73;;;;;;;;;;4979024;28;20057;-82
2022/12/12 09:11:54;;;;;;;2.58;1.17;;;;;;;;;;4977738;28;20034;-83
2022/12/12 09:14:19;;;;;;;0.80;0.60;;;;;;;;;;4978289;28;20396;-83
2022/12/12 09:16:44;;;;;;;0.75;0.63;;;;;;;;;;4977644;28;20110;-82
2022/12/12 09:19:10;;;;;;;1.13;0.82;;;;;;;;;;4978677;28;20054;-82
2022/12/12 09:21:35;;;;;;;1.25;0.80;;;;;;;;;;4978664;28;20473;-81
2022/12/12 09:24:00;;;;;;;4.10;2.20;;;;;;;;;;4978089;28;20030;-81
2022/12/12 09:26:26;;;;;;;1.70;0.85;;;;;;;;;;4979552;28;20050;-84
2022/12/12 09:28:51;;;;;;;1.48;1.00;;;;;;;;;;4979558;28;20023;-82
2022/12/12 09:31:16;;;;;;;1.92;0.73;;;;;;;;;;4978987;28;20124;-82
2022/12/12 09:33:42;;;;;;;1.48;1.00;;;;;;;;;;4978887;28;20023;-82
2022/12/12 09:36:09;;;;;;;1.65;1.35;;;;;;;;;;4977913;28;20030;-81
2022/12/12 09:38:35;;;;;;;1.45;0.77;;;;;;;;;;4978818;28;20033;-82
2022/12/12 09:41:22;;;;;;;0.93;0.70;;;;;;;;;;4978215;28;20046;-81
2022/12/12 09:43:59;;;;;;;1.45;1.02;;;;;;;;;;4976403;28;20077;-82
2022/12/12 09:46:36;;;;;;;2.58;1.10;;;;;;;;;;4977407;28;20516;-83
2022/12/12 09:49:14;;;;;;;1.67;0.90;;;;;;;;;;4975849;28;20057;-82
2022/12/12 09:51:42;;;;;;;1.52;0.98;;;;;;;;;;4976778;28;20023;-82
2022/12/12 09:54:12;;;;;;;1.67;1.15;;;;;;;;;;4978592;28;20030;-82
2022/12/12 09:57:01;;;;;;;1.77;0.75;;;;;;;;;;4976367;28;20269;-82
2022/12/12 09:59:49;;;;;;;2.00;1.05;;;;;;;;;;4975813;28;20022;-81
2022/12/12 10:02:29;;;;;;;4.68;1.85;;;;;;;;;;4978189;28;20029;-81
2022/12/12 10:04:57;;;;;;;1.75;1.15;;;;;;;;;;4977735;28;20027;-81
2022/12/12 10:07:35;;;;;;;2.00;1.33;;;;;;;;;;4976983;28;20031;-82
2022/12/12 10:10:24;;;;;;;2.58;1.52;;;;;;;;;;4976460;28;20037;-83
2022/12/12 10:12:51;;;;;;;1.35;1.00;;;;;;;;;;4976674;28;20015;-81
2022/12/12 10:15:23;;;;;;;1.88;1.10;;;;;;;;;;4976964;28;20026;-81
2022/12/12 10:17:49;;;;;;;1.73;1.17;;;;;;;;;;4976602;28;20102;-82
2022/12/12 10:20:22;;;;;;;2.28;1.33;;;;;;;;;;4980509;28;20031;-81
2022/12/12 10:22:55;;;;;;;3.90;2.03;;;;;;;;;;4981001;28;20030;-82
2022/12/12 10:25:26;;;;;;;2.05;1.25;;;;;;;;;;4981060;28;20025;-81
2022/12/12 10:28:08;;;;;;;4.93;1.23;;;;;;;;;;4980519;28;20506;-83
2022/12/12 10:30:38;;;;;;;3.00;1.52;;;;;;;;;;4984088;28;20030;-81
2022/12/12 10:33:07;;;;;;;3.17;1.88;;;;;;;;;;4980810;28;20038;-83
2022/12/12 10:35:42;;;;;;;6.85;3.65;;;;;;;;;;4986931;28;20030;-83
2022/12/12 10:38:37;;;;;;;3.22;1.90;;;;;;;;;;4986745;28;20419;-83
2022/12/12 10:41:21;;;;;;;10.23;3.38;;;;;;;;;;4980096;28;20026;-81
2022/12/12 10:43:49;;;;;;;;;;;;;;;;;;4980448;28;20019;-81
2022/12/12 10:46:24;;;;;;;2.15;1.50;;;;;;;;;;4979191;28;20271;-81
2022/12/12 10:48:50;;;;;;;1.67;1.00;;;;;;;;;;4980709;28;20031;-82
2022/12/12 10:51:18;;;;;;;3.30;1.85;;;;;;;;;;4979970;28;20037;-82
2022/12/12 10:53:44;;;;;;;3.85;2.25;;;;;;;;;;4980306;28;20033;-82
2022/12/12 10:56:17;;;;;;;1.33;0.95;;;;;;;;;;4980101;28;20101;-82
2022/12/12 10:58:43;;;;;;;2.78;1.80;;;;;;;;;;4980566;28;20065;-82
2022/12/12 11:01:26;;;;;;;4.57;2.38;;;;;;;;;;4980542;28;20447;-82
2022/12/12 11:03:53;;;;;;;7.07;3.22;;;;;;;;;;4978953;28;20019;-81
2022/12/12 11:06:31;;;;;;;5.10;2.10;;;;;;;;;;4978511;28;20035;-81
2022/12/12 11:09:05;;;;;;;3.00;1.63;;;;;;;;;;4979494;28;20034;-81
2022/12/12 11:11:30;;;;;;;1.52;1.13;;;;;;;;;;4979552;28;20111;-82
2022/12/12 11:13:59;;;;;;;2.67;1.20;;;;;;;;;;4978365;28;20078;-82
2022/12/12 11:16:28;;;;;;;3.05;1.83;;;;;;;;;;4980089;28;20027;-81
2022/12/12 11:19:05;;;;;;;3.33;1.65;;;;;;;;;;4978872;28;20029;-82
2022/12/12 11:21:34;;;;;;;6.45;1.63;;;;;;;;;;4979831;28;20038;-81
2022/12/12 11:24:06;;;;;;;7.00;2.03;;;;;;;;;;4978123;28;20015;-82
2022/12/12 11:26:41;;;;;;;7.95;3.28;;;;;;;;;;4979670;28;20057;-82
2022/12/12 11:29:24;;;;;;;6.72;2.10;;;;;;;;;;4979006;28;20110;-82
2022/12/12 11:31:49;;;;;;;8.52;1.75;;;;;;;;;;4977670;28;20038;-81
2022/12/12 11:34:15;;;;;;;8.93;3.25;;;;;;;;;;4979015;28;20031;-83
2022/12/12 11:36:41;;;;;;;4.15;2.55;;;;;;;;;;4979154;28;20109;-81
2022/12/12 11:39:27;;;;;;;3.38;1.75;;;;;;;;;;4980736;28;20440;-82
2022/12/12 11:41:56;;;;;;;3.50;2.25;;;;;;;;;;4979648;28;20117;-82
2022/12/12 11:44:24;;;;;;;3.53;2.25;;;;;;;;;;4979843;28;20035;-81
2022/12/12 11:46:50;;;;;;;3.72;2.17;;;;;;;;;;4979457;28;20056;-82
2022/12/12 11:49:18;;;;;;;5.97;3.03;;;;;;;;;;4979585;28;20389;-82
2022/12/12 11:51:44;;;;;;;4.05;2.72;;;;;;;;;;4979302;28;20406;-82
2022/12/12 11:54:14;;;;;;;5.13;3.25;;;;;;;;;;4978915;28;20027;-82
2022/12/12 11:56:54;;;;;;;6.45;3.67;;;;;;;;;;4977701;28;20030;-82
2022/12/12 11:59:56;;;;;;;5.63;3.08;;;;;;;;;;4977954;28;20023;-82
2022/12/12 12:02:38;;;;;;;4.72;2.80;;;;;;;;;;4964980;28;20050;-82
2022/12/12 12:05:24;;;;;;;2.60;1.95;;;;;;;;;;4979852;28;20105;-82
2022/12/12 12:08:11;;;;;;;7.75;3.72;;;;;;;;;;4979306;28;20133;-80
2022/12/12 12:10:51;;;;;;;6.35;2.92;;;;;;;;;;4979082;28;20022;-82
2022/12/12 12:13:44;;;;;;;7.53;3.13;;;;;;;;;;4979275;28;20027;-82
2022/12/12 12:16:45;;;;;;;4.65;2.20;;;;;;;;;;4978972;28;20026;-82
2022/12/12 12:19:41;;;;;;;12.38;3.75;;;;;;;;;;4977329;28;20027;-82
2022/12/12 12:22:26;;;;;;;9.18;3.20;;;;;;;;;;4978314;28;20135;-82
2022/12/12 12:25:18;;;;;;;4.15;2.17;;;;;;;;;;4978728;28;20019;-83
2022/12/12 12:28:15;;;;;;;8.68;3.60;;;;;;;;;;4978510;28;20090;-80
2022/12/12 12:30:54;;;;;;;5.95;3.88;;;;;;;;;;4977937;28;20030;-81
2022/12/12 12:33:35;;;;;;;11.35;4.05;;;;;;;;;;4977356;28;20049;-82
2022/12/12 12:36:21;;;;;;;12.32;5.35;;;;;;;;;;4977331;28;20031;-81
2022/12/12 12:39:19;;;;;;;12.30;5.15;;;;;;;;;;4978723;28;20021;-82
2022/12/12 12:41:55;;;;;;;11.43;5.40;;;;;;;;;;4977599;28;20027;-82
2022/12/12 12:44:42;;;;;;;10.50;4.80;;;;;;;;;;4978604;28;20105;-81
2022/12/12 12:47:34;;;;;;;11.35;4.13;;;;;;;;;;4978716;28;20022;-82
2022/12/12 12:50:18;;;;;;;11.02;5.72;;;;;;;;;;4978102;28;20400;-84
2022/12/12 12:53:06;;;;;;;12.15;5.82;;;;;;;;;;4976519;28;20030;-80
2022/12/12 12:55:42;;;;;;;10.23;5.32;;;;;;;;;;4978125;28;20022;-81
2022/12/12 12:58:17;;;;;;;10.73;4.68;;;;;;;;;;4977978;28;20027;-80
2022/12/12 13:00:43;;;;;;;11.30;5.93;;;;;;;;;;4977089;28;20164;-80
2022/12/12 13:03:18;;;;;;;15.05;5.80;;;;;;;;;;4976571;28;20066;-81
2022/12/12 13:05:50;;;;;;;11.98;6.00;;;;;;;;;;4978028;28;20109;-81
2022/12/12 13:08:31;;;;;;;13.63;5.40;;;;;;;;;;4976744;28;20026;-81
2022/12/12 13:11:09;;;;;;;15.77;6.88;;;;;;;;;;4977918;28;20118;-81
2022/12/12 13:13:39;;;;;;;12.90;5.63;;;;;;;;;;4977702;28;20032;-83
2022/12/12 13:16:10;;;;;;;12.68;4.50;;;;;;;;;;4977365;28;20110;-82
2022/12/12 13:18:38;;;;;;;15.48;5.95;;;;;;;;;;4977254;28;20543;-82
2022/12/12 13:21:10;;;;;;;11.95;5.82;;;;;;;;;;4975790;28;20061;-82
2022/12/12 13:23:46;;;;;;;17.13;6.63;;;;;;;;;;4975990;28;20030;-81
2022/12/12 13:26:22;;;;;;;17.25;7.53;;;;;;;;;;4978227;28;20029;-81
2022/12/12 13:29:02;;;;;;;18.23;6.45;;;;;;;;;;4975700;28;20040;-81
2022/12/12 13:31:38;;;;;;;12.05;6.55;;;;;;;;;;4976892;28;20125;-81
2022/12/12 13:34:07;;;;;;;13.32;6.90;;;;;;;;;;4977463;28;20026;-83
2022/12/12 13:36:42;;;;;;;13.05;5.90;;;;;;;;;;4977419;28;20106;-80
2022/12/12 13:39:33;;;;;;;14.20;6.80;;;;;;;;;;4977061;28;20503;-82
2022/12/12 13:42:07;;;;;;;14.10;6.78;;;;;;;;;;4975827;28;20113;-80
2022/12/12 13:44:35;;;;;;;15.98;7.38;;;;;;;;;;4975981;28;20445;-82
2022/12/12 13:47:02;;;;;;;19.42;6.72;;;;;;;;;;4975938;28;20033;-81
2022/12/12 13:50:03;;;;;;;16.13;7.05;;;;;;;;;;4976409;28;20042;-82
2022/12/12 13:52:33;;;;;;;14.23;6.22;;;;;;;;;;4977472;28;20039;-82
2022/12/12 13:55:10;;;;;;;14.88;7.05;;;;;;;;;;4978044;28;20476;-81
2022/12/12 13:57:55;;;;;;;16.42;5.95;;;;;;;;;;4977072;28;20035;-82
2022/12/12 14:00:20;;;;;;;15.05;6.30;;;;;;;;;;4977135;28;20026;-82
2022/12/12 14:02:55;;;;;;;20.38;6.10;;;;;;;;;;4977513;28;20030;-82
2022/12/12 14:05:23;;;;;;;12.68;5.45;;;;;;;;;;4976134;28;20126;-82
2022/12/12 14:08:00;;;;;;;16.38;6.45;;;;;;;;;;4975825;28;20505;-81
2022/12/12 14:10:32;;;;;;;13.95;5.80;;;;;;;;;;4977323;28;20167;-83
2022/12/12 14:13:14;;;;;;;13.45;6.60;;;;;;;;;;4975644;28;20034;-81
2022/12/12 14:15:40;;;;;;;14.40;6.05;;;;;;;;;;4977107;28;20031;-80
2022/12/12 14:18:14;;;;;;;10.98;5.78;;;;;;;;;;4976480;28;20515;-82
2022/12/12 14:20:42;;;;;;;11.27;5.60;;;;;;;;;;4978021;28;20081;-81
2022/12/12 14:23:24;;;;;;;10.80;4.93;;;;;;;;;;4977730;28;20086;-80
2022/12/12 14:25:50;;;;;;;12.20;6.10;;;;;;;;;;4978059;28;20081;-81
2022/12/12 14:28:20;;;;;;;14.15;6.10;;;;;;;;;;4976475;28;20030;-81
2022/12/12 14:30:54;;;;;;;16.02;6.07;;;;;;;;;;4977385;28;20034;-81
2022/12/12 14:33:40;;;;;;;11.88;5.70;;;;;;;;;;4975932;28;20048;-81
2022/12/12 14:36:14;;;;;;;11.05;5.80;;;;;;;;;;4975848;28;20034;-83
2022/12/12 14:39:05;;;;;;;13.30;5.60;;;;;;;;;;4978405;28;20064;-80
2022/12/12 14:41:34;;;;;;;10.18;5.07;;;;;;;;;;4963147;28;20039;-81
2022/12/12 14:44:02;;;;;;;13.40;5.45;;;;;;;;;;4978162;28;20023;-81
2022/12/12 14:46:28;;;;;;;13.15;6.65;;;;;;;;;;4977582;28;20373;-81
2022/12/12 14:49:04;;;;;;;10.15;4.53;;;;;;;;;;4977198;28;20107;-81
2022/12/12 14:51:32;;;;;;;12.15;5.45;;;;;;;;;;4977263;28;20034;-82
2022/12/12 14:54:01;;;;;;;14.52;6.20;;;;;;;;;;4977943;28;20111;-82
2022/12/12 14:56:30;;;;;;;13.82;6.00;;;;;;;;;;4977026;28;20031;-81
2022/12/12 14:59:19;;;;;;;13.80;6.28;;;;;;;;;;4976256;28;20390;-82
2022/12/12 15:01:53;;;;;;;9.02;4.90;;;;;;;;;;4975883;28;20050;-82
2022/12/12 15:04:21;;;;;;;9.48;5.25;;;;;;;;;;4979411;28;20026;-80
2022/12/12 15:06:57;;;;;;;15.05;7.32;;;;;;;;;;4980657;28;20026;-81
2022/12/12 15:09:31;;;;;;;14.38;6.78;;;;;;;;;;4979250;28;20027;-82
2022/12/12 15:12:09;;;;;;;14.05;6.25;;;;;;;;;;4980850;28;20022;-82
2022/12/12 15:14:36;;;;;;;13.88;6.70;;;;;;;;;;4980902;28;20030;-81